sensor_id;sensor_type;location;lat;lon;timestamp;P1;durP1;ratioP1;P2;durP2;ratioP2
57891;SDS011;43708;48.828;9.166;2023-02-28T00:00:27;1.80;;;0.60;;
57891;SDS011;43708;48.828;9.166;2023-02-28T00:02:52;0.77;;;0.60;;
57891;SDS011;43708;48.828;9.166;2023-02-28T00:05:19;2.55;;;0.70;;
57891;SDS011;43708;48.828;9.166;2023-02-28T00:07:46;2.63;;;0.90;;
57891;SDS011;43708;48.828;9.166;2023-02-28T00:10:14;1.17;;;0.60;;
57891;SDS011;43708;48.828;9.166;2023-02-28T00:12:49;0.55;;;0.55;;
57891;SDS011;43708;48.828;9.166;2023-02-28T00:15:15;0.40;;;0.40;;
57891;SDS011;43708;48.828;9.166;2023-02-28T00:17:41;0.60;;;0.50;;
57891;SDS011;43708;48.828;9.166;2023-02-28T00:20:07;1.00;;;0.60;;
57891;SDS011;43708;48.828;9.166;2023-02-28T00:22:35;0.70;;;0.50;;
57891;SDS011;43708;48.828;9.166;2023-02-28T00:25:02;0.60;;;0.50;;
57891;SDS011;43708;48.828;9.166;2023-02-28T00:27:28;0.65;;;0.60;;
57891;SDS011;43708;48.828;9.166;2023-02-28T00:29:54;0.50;;;0.50;;
57891;SDS011;43708;48.828;9.166;2023-02-28T00:32:20;0.73;;;0.70;;
57891;SDS011;43708;48.828;9.166;2023-02-28T00:34:46;0.68;;;0.50;;
57891;SDS011;43708;48.828;9.166;2023-02-28T00:37:12;0.70;;;0.70;;
57891;SDS011;43708;48.828;9.166;2023-02-28T00:39:38;0.88;;;0.65;;
57891;SDS011;43708;48.828;9.166;2023-02-28T00:42:04;0.65;;;0.65;;
57891;SDS011;43708;48.828;9.166;2023-02-28T00:44:31;0.93;;;0.60;;
57891;SDS011;43708;48.828;9.166;2023-02-28T00:46:57;0.50;;;0.50;;
57891;SDS011;43708;48.828;9.166;2023-02-28T00:49:23;0.60;;;0.55;;
57891;SDS011;43708;48.828;9.166;2023-02-28T00:51:49;0.60;;;0.60;;
57891;SDS011;43708;48.828;9.166;2023-02-28T00:54:16;1.25;;;0.63;;
57891;SDS011;43708;48.828;9.166;2023-02-28T00:56:42;0.57;;;0.57;;
57891;SDS011;43708;48.828;9.166;2023-02-28T00:59:08;0.70;;;0.60;;
57891;SDS011;43708;48.828;9.166;2023-02-28T01:01:33;0.60;;;0.60;;
57891;SDS011;43708;48.828;9.166;2023-02-28T01:03:59;0.85;;;0.60;;
57891;SDS011;43708;48.828;9.166;2023-02-28T01:06:25;0.52;;;0.40;;
57891;SDS011;43708;48.828;9.166;2023-02-28T01:08:50;0.82;;;0.70;;
57891;SDS011;43708;48.828;9.166;2023-02-28T01:11:16;0.50;;;0.50;;
57891;SDS011;43708;48.828;9.166;2023-02-28T01:13:44;0.70;;;0.40;;
57891;SDS011;43708;48.828;9.166;2023-02-28T01:16:11;0.50;;;0.50;;
57891;SDS011;43708;48.828;9.166;2023-02-28T01:18:37;0.50;;;0.50;;
57891;SDS011;43708;48.828;9.166;2023-02-28T01:21:05;0.60;;;0.60;;
57891;SDS011;43708;48.828;9.166;2023-02-28T01:23:32;1.27;;;0.50;;
57891;SDS011;43708;48.828;9.166;2023-02-28T01:26:03;0.63;;;0.52;;
57891;SDS011;43708;48.828;9.166;2023-02-28T01:28:33;1.00;;;0.50;;
57891;SDS011;43708;48.828;9.166;2023-02-28T01:30:59;1.25;;;0.70;;
57891;SDS011;43708;48.828;9.166;2023-02-28T01:33:24;0.80;;;0.50;;
57891;SDS011;43708;48.828;9.166;2023-02-28T01:35:57;0.98;;;0.60;;
57891;SDS011;43708;48.828;9.166;2023-02-28T01:38:26;0.70;;;0.60;;
57891;SDS011;43708;48.828;9.166;2023-02-28T01:40:52;0.82;;;0.70;;
57891;SDS011;43708;48.828;9.166;2023-02-28T01:43:26;0.38;;;0.35;;
57891;SDS011;43708;48.828;9.166;2023-02-28T01:45:53;0.57;;;0.57;;
57891;SDS011;43708;48.828;9.166;2023-02-28T01:48:21;0.70;;;0.47;;
57891;SDS011;43708;48.828;9.166;2023-02-28T01:50:51;0.57;;;0.57;;
57891;SDS011;43708;48.828;9.166;2023-02-28T01:53:19;0.85;;;0.70;;
57891;SDS011;43708;48.828;9.166;2023-02-28T01:55:51;0.90;;;0.50;;
57891;SDS011;43708;48.828;9.166;2023-02-28T01:58:19;0.73;;;0.50;;
57891;SDS011;43708;48.828;9.166;2023-02-28T02:00:45;0.70;;;0.60;;
57891;SDS011;43708;48.828;9.166;2023-02-28T02:03:14;0.65;;;0.55;;
57891;SDS011;43708;48.828;9.166;2023-02-28T02:05:46;0.82;;;0.50;;
57891;SDS011;43708;48.828;9.166;2023-02-28T02:08:23;0.50;;;0.50;;
57891;SDS011;43708;48.828;9.166;2023-02-28T02:10:54;0.63;;;0.47;;
57891;SDS011;43708;48.828;9.166;2023-02-28T02:16:34;0.50;;;0.50;;
57891;SDS011;43708;48.828;9.166;2023-02-28T02:24:58;0.80;;;0.57;;
57891;SDS011;43708;48.828;9.166;2023-02-28T02:35:29;0.50;;;0.43;;
57891;SDS011;43708;48.828;9.166;2023-02-28T02:46:05;0.40;;;0.35;;
57891;SDS011;43708;48.828;9.166;2023-02-28T02:48:45;0.40;;;0.30;;
57891;SDS011;43708;48.828;9.166;2023-02-28T02:51:16;0.55;;;0.50;;
57891;SDS011;43708;48.828;9.166;2023-02-28T02:53:49;1.33;;;0.35;;
57891;SDS011;43708;48.828;9.166;2023-02-28T02:56:19;0.40;;;0.40;;
57891;SDS011;43708;48.828;9.166;2023-02-28T02:58:48;0.45;;;0.45;;
57891;SDS011;43708;48.828;9.166;2023-02-28T03:01:20;0.60;;;0.50;;
57891;SDS011;43708;48.828;9.166;2023-02-28T03:03:56;0.50;;;0.40;;
57891;SDS011;43708;48.828;9.166;2023-02-28T03:06:24;0.60;;;0.50;;
57891;SDS011;43708;48.828;9.166;2023-02-28T03:08:51;0.82;;;0.50;;
57891;SDS011;43708;48.828;9.166;2023-02-28T03:11:16;0.57;;;0.40;;
57891;SDS011;43708;48.828;9.166;2023-02-28T03:30:27;0.50;;;0.50;;
57891;SDS011;43708;48.828;9.166;2023-02-28T03:33:05;0.38;;;0.30;;
57891;SDS011;43708;48.828;9.166;2023-02-28T03:35:47;0.40;;;0.38;;
57891;SDS011;43708;48.828;9.166;2023-02-28T03:40:51;0.60;;;0.60;;
57891;SDS011;43708;48.828;9.166;2023-02-28T03:43:26;0.50;;;0.38;;
57891;SDS011;43708;48.828;9.166;2023-02-28T03:45:56;0.60;;;0.50;;
57891;SDS011;43708;48.828;9.166;2023-02-28T03:48:31;0.82;;;0.50;;
57891;SDS011;43708;48.828;9.166;2023-02-28T03:51:18;0.75;;;0.55;;
57891;SDS011;43708;48.828;9.166;2023-02-28T03:53:52;0.40;;;0.40;;
57891;SDS011;43708;48.828;9.166;2023-02-28T03:56:30;0.50;;;0.50;;
57891;SDS011;43708;48.828;9.166;2023-02-28T04:01:53;0.50;;;0.50;;
57891;SDS011;43708;48.828;9.166;2023-02-28T04:04:19;0.60;;;0.40;;
57891;SDS011;43708;48.828;9.166;2023-02-28T04:06:45;0.50;;;0.50;;
57891;SDS011;43708;48.828;9.166;2023-02-28T04:09:15;0.60;;;0.60;;
57891;SDS011;43708;48.828;9.166;2023-02-28T04:11:45;0.68;;;0.60;;
57891;SDS011;43708;48.828;9.166;2023-02-28T04:14:16;0.57;;;0.57;;
57891;SDS011;43708;48.828;9.166;2023-02-28T04:16:42;0.55;;;0.55;;
57891;SDS011;43708;48.828;9.166;2023-02-28T04:19:09;0.60;;;0.60;;
57891;SDS011;43708;48.828;9.166;2023-02-28T04:21:36;0.50;;;0.50;;
57891;SDS011;43708;48.828;9.166;2023-02-28T04:24:04;0.50;;;0.50;;
57891;SDS011;43708;48.828;9.166;2023-02-28T04:26:31;0.40;;;0.40;;
57891;SDS011;43708;48.828;9.166;2023-02-28T04:28:58;0.40;;;0.40;;
57891;SDS011;43708;48.828;9.166;2023-02-28T04:31:25;0.68;;;0.40;;
57891;SDS011;43708;48.828;9.166;2023-02-28T04:33:50;0.50;;;0.50;;
57891;SDS011;43708;48.828;9.166;2023-02-28T04:36:17;0.50;;;0.40;;
57891;SDS011;43708;48.828;9.166;2023-02-28T04:38:43;0.40;;;0.40;;
57891;SDS011;43708;48.828;9.166;2023-02-28T04:41:09;0.77;;;0.40;;
57891;SDS011;43708;48.828;9.166;2023-02-28T04:43:35;0.40;;;0.40;;
57891;SDS011;43708;48.828;9.166;2023-02-28T04:46:01;0.50;;;0.40;;
57891;SDS011;43708;48.828;9.166;2023-02-28T04:48:29;0.50;;;0.40;;
57891;SDS011;43708;48.828;9.166;2023-02-28T04:51:04;0.52;;;0.50;;
57891;SDS011;43708;48.828;9.166;2023-02-28T04:53:31;0.80;;;0.57;;
57891;SDS011;43708;48.828;9.166;2023-02-28T04:55:57;0.45;;;0.40;;
57891;SDS011;43708;48.828;9.166;2023-02-28T04:58:24;0.52;;;0.50;;
57891;SDS011;43708;48.828;9.166;2023-02-28T05:00:50;0.50;;;0.40;;
57891;SDS011;43708;48.828;9.166;2023-02-28T05:03:16;0.47;;;0.43;;
57891;SDS011;43708;48.828;9.166;2023-02-28T05:05:42;0.50;;;0.50;;
57891;SDS011;43708;48.828;9.166;2023-02-28T05:08:07;0.70;;;0.60;;
57891;SDS011;43708;48.828;9.166;2023-02-28T05:10:34;0.50;;;0.40;;
57891;SDS011;43708;48.828;9.166;2023-02-28T05:13:00;0.68;;;0.57;;
57891;SDS011;43708;48.828;9.166;2023-02-28T05:15:26;0.57;;;0.57;;
57891;SDS011;43708;48.828;9.166;2023-02-28T05:17:51;0.55;;;0.45;;
57891;SDS011;43708;48.828;9.166;2023-02-28T05:20:17;0.40;;;0.32;;
57891;SDS011;43708;48.828;9.166;2023-02-28T05:22:43;0.43;;;0.43;;
57891;SDS011;43708;48.828;9.166;2023-02-28T05:25:12;0.57;;;0.50;;
57891;SDS011;43708;48.828;9.166;2023-02-28T05:27:41;0.57;;;0.47;;
57891;SDS011;43708;48.828;9.166;2023-02-28T05:30:07;0.50;;;0.40;;
57891;SDS011;43708;48.828;9.166;2023-02-28T05:32:35;0.70;;;0.60;;
57891;SDS011;43708;48.828;9.166;2023-02-28T05:35:02;0.70;;;0.60;;
57891;SDS011;43708;48.828;9.166;2023-02-28T05:37:27;1.05;;;0.88;;
57891;SDS011;43708;48.828;9.166;2023-02-28T05:39:53;0.50;;;0.50;;
57891;SDS011;43708;48.828;9.166;2023-02-28T05:42:18;0.70;;;0.50;;
57891;SDS011;43708;48.828;9.166;2023-02-28T05:44:44;0.40;;;0.40;;
57891;SDS011;43708;48.828;9.166;2023-02-28T05:47:10;0.57;;;0.55;;
57891;SDS011;43708;48.828;9.166;2023-02-28T05:49:37;0.50;;;0.35;;
57891;SDS011;43708;48.828;9.166;2023-02-28T05:52:03;0.70;;;0.60;;
57891;SDS011;43708;48.828;9.166;2023-02-28T05:54:28;0.63;;;0.50;;
57891;SDS011;43708;48.828;9.166;2023-02-28T05:56:54;0.60;;;0.60;;
57891;SDS011;43708;48.828;9.166;2023-02-28T05:59:20;0.73;;;0.60;;
57891;SDS011;43708;48.828;9.166;2023-02-28T06:01:45;0.50;;;0.50;;
57891;SDS011;43708;48.828;9.166;2023-02-28T06:04:14;0.52;;;0.52;;
57891;SDS011;43708;48.828;9.166;2023-02-28T06:06:45;0.40;;;0.40;;
57891;SDS011;43708;48.828;9.166;2023-02-28T06:09:11;0.55;;;0.40;;
57891;SDS011;43708;48.828;9.166;2023-02-28T06:11:37;0.60;;;0.60;;
57891;SDS011;43708;48.828;9.166;2023-02-28T06:14:03;0.55;;;0.50;;
57891;SDS011;43708;48.828;9.166;2023-02-28T06:16:30;0.60;;;0.60;;
57891;SDS011;43708;48.828;9.166;2023-02-28T06:18:59;0.40;;;0.40;;
57891;SDS011;43708;48.828;9.166;2023-02-28T06:21:27;0.50;;;0.50;;
57891;SDS011;43708;48.828;9.166;2023-02-28T06:23:54;0.40;;;0.40;;
57891;SDS011;43708;48.828;9.166;2023-02-28T06:26:21;0.40;;;0.38;;
57891;SDS011;43708;48.828;9.166;2023-02-28T06:28:47;0.75;;;0.47;;
57891;SDS011;43708;48.828;9.166;2023-02-28T06:31:14;0.50;;;0.47;;
57891;SDS011;43708;48.828;9.166;2023-02-28T06:33:42;0.77;;;0.40;;
57891;SDS011;43708;48.828;9.166;2023-02-28T06:36:09;0.50;;;0.50;;
57891;SDS011;43708;48.828;9.166;2023-02-28T06:38:37;0.40;;;0.30;;
57891;SDS011;43708;48.828;9.166;2023-02-28T06:41:03;0.40;;;0.40;;
57891;SDS011;43708;48.828;9.166;2023-02-28T06:43:31;0.32;;;0.28;;
57891;SDS011;43708;48.828;9.166;2023-02-28T06:45:59;1.13;;;0.50;;
57891;SDS011;43708;48.828;9.166;2023-02-28T06:48:28;2.00;;;0.50;;
57891;SDS011;43708;48.828;9.166;2023-02-28T06:53:38;1.40;;;0.85;;
57891;SDS011;43708;48.828;9.166;2023-02-28T06:56:04;3.33;;;0.88;;
57891;SDS011;43708;48.828;9.166;2023-02-28T06:58:35;6.22;;;1.27;;
57891;SDS011;43708;48.828;9.166;2023-02-28T07:01:02;2.35;;;0.63;;
57891;SDS011;43708;48.828;9.166;2023-02-28T07:03:28;1.25;;;0.68;;
57891;SDS011;43708;48.828;9.166;2023-02-28T07:05:54;3.10;;;0.70;;
57891;SDS011;43708;48.828;9.166;2023-02-28T07:08:21;4.50;;;0.80;;
57891;SDS011;43708;48.828;9.166;2023-02-28T07:10:51;1.20;;;0.80;;
57891;SDS011;43708;48.828;9.166;2023-02-28T07:13:17;9.63;;;1.17;;
57891;SDS011;43708;48.828;9.166;2023-02-28T07:15:42;2.58;;;0.77;;
57891;SDS011;43708;48.828;9.166;2023-02-28T07:18:08;1.10;;;0.60;;
57891;SDS011;43708;48.828;9.166;2023-02-28T07:20:33;0.80;;;0.57;;
57891;SDS011;43708;48.828;9.166;2023-02-28T07:23:00;0.70;;;0.57;;
57891;SDS011;43708;48.828;9.166;2023-02-28T07:25:25;1.30;;;0.80;;
57891;SDS011;43708;48.828;9.166;2023-02-28T07:27:53;3.83;;;1.05;;
57891;SDS011;43708;48.828;9.166;2023-02-28T07:30:19;0.77;;;0.65;;
57891;SDS011;43708;48.828;9.166;2023-02-28T07:32:45;1.17;;;0.68;;
57891;SDS011;43708;48.828;9.166;2023-02-28T07:35:10;1.85;;;0.65;;
57891;SDS011;43708;48.828;9.166;2023-02-28T07:37:36;0.98;;;0.50;;
57891;SDS011;43708;48.828;9.166;2023-02-28T07:40:03;0.75;;;0.60;;
57891;SDS011;43708;48.828;9.166;2023-02-28T07:42:32;0.90;;;0.70;;
57891;SDS011;43708;48.828;9.166;2023-02-28T07:44:58;2.10;;;0.70;;
57891;SDS011;43708;48.828;9.166;2023-02-28T07:47:24;0.68;;;0.52;;
57891;SDS011;43708;48.828;9.166;2023-02-28T07:49:49;2.75;;;0.82;;
57891;SDS011;43708;48.828;9.166;2023-02-28T07:52:15;1.27;;;0.63;;
57891;SDS011;43708;48.828;9.166;2023-02-28T07:54:41;0.75;;;0.60;;
57891;SDS011;43708;48.828;9.166;2023-02-28T07:57:07;0.63;;;0.63;;
57891;SDS011;43708;48.828;9.166;2023-02-28T07:59:32;0.70;;;0.70;;
57891;SDS011;43708;48.828;9.166;2023-02-28T08:01:58;0.63;;;0.50;;
57891;SDS011;43708;48.828;9.166;2023-02-28T08:04:24;0.80;;;0.70;;
57891;SDS011;43708;48.828;9.166;2023-02-28T08:06:50;1.10;;;0.82;;
57891;SDS011;43708;48.828;9.166;2023-02-28T08:09:19;0.77;;;0.77;;
57891;SDS011;43708;48.828;9.166;2023-02-28T08:11:45;1.15;;;0.82;;
57891;SDS011;43708;48.828;9.166;2023-02-28T08:14:10;1.52;;;0.63;;
57891;SDS011;43708;48.828;9.166;2023-02-28T08:16:36;1.65;;;0.82;;
57891;SDS011;43708;48.828;9.166;2023-02-28T08:19:03;1.00;;;0.70;;
57891;SDS011;43708;48.828;9.166;2023-02-28T08:21:29;0.73;;;0.60;;
57891;SDS011;43708;48.828;9.166;2023-02-28T08:23:54;1.65;;;0.80;;
57891;SDS011;43708;48.828;9.166;2023-02-28T08:26:21;1.40;;;0.70;;
57891;SDS011;43708;48.828;9.166;2023-02-28T08:28:47;0.70;;;0.57;;
57891;SDS011;43708;48.828;9.166;2023-02-28T08:31:15;0.60;;;0.60;;
57891;SDS011;43708;48.828;9.166;2023-02-28T08:33:42;1.48;;;0.75;;
57891;SDS011;43708;48.828;9.166;2023-02-28T08:36:10;1.10;;;0.88;;
57891;SDS011;43708;48.828;9.166;2023-02-28T08:38:36;0.88;;;0.68;;
57891;SDS011;43708;48.828;9.166;2023-02-28T08:41:06;0.85;;;0.70;;
57891;SDS011;43708;48.828;9.166;2023-02-28T08:43:34;1.15;;;0.93;;
57891;SDS011;43708;48.828;9.166;2023-02-28T08:46:00;1.50;;;0.77;;
57891;SDS011;43708;48.828;9.166;2023-02-28T08:48:27;1.00;;;0.70;;
57891;SDS011;43708;48.828;9.166;2023-02-28T08:53:25;1.13;;;0.80;;
57891;SDS011;43708;48.828;9.166;2023-02-28T08:55:58;0.82;;;0.60;;
57891;SDS011;43708;48.828;9.166;2023-02-28T08:58:28;0.80;;;0.63;;
57891;SDS011;43708;48.828;9.166;2023-02-28T09:00:54;1.50;;;0.80;;
57891;SDS011;43708;48.828;9.166;2023-02-28T09:03:20;1.95;;;0.80;;
57891;SDS011;43708;48.828;9.166;2023-02-28T09:05:56;0.90;;;0.63;;
57891;SDS011;43708;48.828;9.166;2023-02-28T09:08:24;1.35;;;0.82;;
57891;SDS011;43708;48.828;9.166;2023-02-28T09:10:52;2.50;;;0.80;;
57891;SDS011;43708;48.828;9.166;2023-02-28T09:13:19;2.78;;;0.68;;
57891;SDS011;43708;48.828;9.166;2023-02-28T09:15:45;1.60;;;0.82;;
57891;SDS011;43708;48.828;9.166;2023-02-28T09:18:11;0.82;;;0.75;;
57891;SDS011;43708;48.828;9.166;2023-02-28T09:20:37;1.27;;;0.70;;
57891;SDS011;43708;48.828;9.166;2023-02-28T09:23:07;1.52;;;0.90;;
57891;SDS011;43708;48.828;9.166;2023-02-28T09:25:34;1.15;;;0.90;;
57891;SDS011;43708;48.828;9.166;2023-02-28T09:28:00;0.82;;;0.82;;
57891;SDS011;43708;48.828;9.166;2023-02-28T09:30:26;0.73;;;0.70;;
57891;SDS011;43708;48.828;9.166;2023-02-28T09:32:52;1.10;;;0.70;;
57891;SDS011;43708;48.828;9.166;2023-02-28T09:35:18;1.50;;;0.98;;
57891;SDS011;43708;48.828;9.166;2023-02-28T09:37:46;0.70;;;0.60;;
57891;SDS011;43708;48.828;9.166;2023-02-28T09:40:12;1.50;;;0.80;;
57891;SDS011;43708;48.828;9.166;2023-02-28T09:42:39;3.75;;;0.70;;
57891;SDS011;43708;48.828;9.166;2023-02-28T09:45:06;1.30;;;0.68;;
57891;SDS011;43708;48.828;9.166;2023-02-28T09:47:52;1.67;;;0.82;;
57891;SDS011;43708;48.828;9.166;2023-02-28T09:50:34;2.10;;;0.98;;
57891;SDS011;43708;48.828;9.166;2023-02-28T09:53:02;1.67;;;0.82;;
57891;SDS011;43708;48.828;9.166;2023-02-28T09:55:37;1.80;;;0.60;;
57891;SDS011;43708;48.828;9.166;2023-02-28T09:58:10;1.00;;;0.75;;
57891;SDS011;43708;48.828;9.166;2023-02-28T10:00:49;0.82;;;0.70;;
57891;SDS011;43708;48.828;9.166;2023-02-28T10:03:29;1.02;;;0.80;;
57891;SDS011;43708;48.828;9.166;2023-02-28T10:08:41;2.90;;;1.00;;
57891;SDS011;43708;48.828;9.166;2023-02-28T10:11:11;1.42;;;0.70;;
57891;SDS011;43708;48.828;9.166;2023-02-28T10:13:46;0.88;;;0.70;;
57891;SDS011;43708;48.828;9.166;2023-02-28T10:16:20;1.08;;;0.90;;
57891;SDS011;43708;48.828;9.166;2023-02-28T10:18:56;0.80;;;0.77;;
57891;SDS011;43708;48.828;9.166;2023-02-28T10:26:52;1.27;;;0.90;;
57891;SDS011;43708;48.828;9.166;2023-02-28T10:29:25;0.95;;;0.73;;
57891;SDS011;43708;48.828;9.166;2023-02-28T10:31:52;1.55;;;1.05;;
57891;SDS011;43708;48.828;9.166;2023-02-28T10:34:19;0.82;;;0.70;;
57891;SDS011;43708;48.828;9.166;2023-02-28T10:36:44;1.77;;;1.05;;
57891;SDS011;43708;48.828;9.166;2023-02-28T10:42:01;0.93;;;0.80;;
57891;SDS011;43708;48.828;9.166;2023-02-28T10:44:27;1.00;;;0.70;;
57891;SDS011;43708;48.828;9.166;2023-02-28T10:46:52;1.27;;;0.77;;
57891;SDS011;43708;48.828;9.166;2023-02-28T10:49:22;1.00;;;0.88;;
57891;SDS011;43708;48.828;9.166;2023-02-28T10:51:52;0.88;;;0.70;;
57891;SDS011;43708;48.828;9.166;2023-02-28T10:54:22;1.15;;;0.85;;
57891;SDS011;43708;48.828;9.166;2023-02-28T10:59:45;1.00;;;0.80;;
57891;SDS011;43708;48.828;9.166;2023-02-28T11:02:34;0.88;;;0.73;;
57891;SDS011;43708;48.828;9.166;2023-02-28T11:05:02;1.17;;;0.80;;
57891;SDS011;43708;48.828;9.166;2023-02-28T11:07:51;1.30;;;0.90;;
57891;SDS011;43708;48.828;9.166;2023-02-28T11:10:19;1.17;;;0.77;;
57891;SDS011;43708;48.828;9.166;2023-02-28T11:12:48;0.85;;;0.85;;
57891;SDS011;43708;48.828;9.166;2023-02-28T11:17:55;0.85;;;0.80;;
57891;SDS011;43708;48.828;9.166;2023-02-28T11:20:27;0.75;;;0.68;;
57891;SDS011;43708;48.828;9.166;2023-02-28T11:22:54;1.40;;;0.90;;
57891;SDS011;43708;48.828;9.166;2023-02-28T11:25:35;0.98;;;0.90;;
57891;SDS011;43708;48.828;9.166;2023-02-28T11:28:04;2.85;;;0.90;;
57891;SDS011;43708;48.828;9.166;2023-02-28T11:30:49;1.08;;;0.80;;
57891;SDS011;43708;48.828;9.166;2023-02-28T11:33:51;0.95;;;0.75;;
57891;SDS011;43708;48.828;9.166;2023-02-28T11:36:24;1.25;;;1.00;;
57891;SDS011;43708;48.828;9.166;2023-02-28T11:38:56;0.73;;;0.70;;
57891;SDS011;43708;48.828;9.166;2023-02-28T11:44:47;0.77;;;0.68;;
57891;SDS011;43708;48.828;9.166;2023-02-28T11:50:32;1.25;;;0.95;;
57891;SDS011;43708;48.828;9.166;2023-02-28T11:58:54;1.23;;;1.10;;
57891;SDS011;43708;48.828;9.166;2023-02-28T12:07:19;1.65;;;0.98;;
57891;SDS011;43708;48.828;9.166;2023-02-28T12:10:09;1.70;;;0.95;;
57891;SDS011;43708;48.828;9.166;2023-02-28T12:27:03;2.08;;;1.05;;
57891;SDS011;43708;48.828;9.166;2023-02-28T12:29:39;2.97;;;1.08;;
57891;SDS011;43708;48.828;9.166;2023-02-28T12:32:14;1.00;;;0.93;;
57891;SDS011;43708;48.828;9.166;2023-02-28T12:34:57;0.95;;;0.88;;
57891;SDS011;43708;48.828;9.166;2023-02-28T12:37:40;2.30;;;1.10;;
57891;SDS011;43708;48.828;9.166;2023-02-28T12:40:21;1.23;;;1.10;;
57891;SDS011;43708;48.828;9.166;2023-02-28T12:42:57;1.58;;;1.23;;
57891;SDS011;43708;48.828;9.166;2023-02-28T12:48:28;1.25;;;1.00;;
57891;SDS011;43708;48.828;9.166;2023-02-28T12:51:08;1.73;;;1.05;;
57891;SDS011;43708;48.828;9.166;2023-02-28T12:53:42;2.40;;;1.33;;
57891;SDS011;43708;48.828;9.166;2023-02-28T12:56:16;1.55;;;1.10;;
57891;SDS011;43708;48.828;9.166;2023-02-28T12:58:58;1.70;;;1.10;;
57891;SDS011;43708;48.828;9.166;2023-02-28T13:09:41;1.40;;;1.20;;
57891;SDS011;43708;48.828;9.166;2023-02-28T13:12:18;1.23;;;1.13;;
57891;SDS011;43708;48.828;9.166;2023-02-28T13:14:45;3.55;;;1.15;;
57891;SDS011;43708;48.828;9.166;2023-02-28T13:17:11;1.23;;;1.13;;
57891;SDS011;43708;48.828;9.166;2023-02-28T13:19:45;1.35;;;1.00;;
57891;SDS011;43708;48.828;9.166;2023-02-28T13:24:56;1.27;;;1.00;;
57891;SDS011;43708;48.828;9.166;2023-02-28T13:27:24;1.77;;;1.00;;
57891;SDS011;43708;48.828;9.166;2023-02-28T13:29:58;2.38;;;1.15;;
57891;SDS011;43708;48.828;9.166;2023-02-28T13:32:31;1.27;;;1.10;;
57891;SDS011;43708;48.828;9.166;2023-02-28T13:39:56;1.35;;;1.05;;
57891;SDS011;43708;48.828;9.166;2023-02-28T13:47:30;1.00;;;0.90;;
57891;SDS011;43708;48.828;9.166;2023-02-28T13:55:28;1.15;;;1.05;;
57891;SDS011;43708;48.828;9.166;2023-02-28T14:00:58;1.20;;;1.10;;
57891;SDS011;43708;48.828;9.166;2023-02-28T14:06:47;1.33;;;1.23;;
57891;SDS011;43708;48.828;9.166;2023-02-28T14:09:20;0.80;;;0.80;;
57891;SDS011;43708;48.828;9.166;2023-02-28T14:11:49;1.60;;;1.30;;
57891;SDS011;43708;48.828;9.166;2023-02-28T14:14:57;1.45;;;1.08;;
57891;SDS011;43708;48.828;9.166;2023-02-28T14:17:05;1.55;;;1.27;;
57891;SDS011;43708;48.828;9.166;2023-02-28T14:19:35;1.40;;;1.30;;
57891;SDS011;43708;48.828;9.166;2023-02-28T14:27:47;1.85;;;1.20;;
57891;SDS011;43708;48.828;9.166;2023-02-28T14:33:23;2.42;;;1.10;;
57891;SDS011;43708;48.828;9.166;2023-02-28T14:38:59;1.42;;;1.25;;
57891;SDS011;43708;48.828;9.166;2023-02-28T14:41:32;1.65;;;1.35;;
57891;SDS011;43708;48.828;9.166;2023-02-28T14:44:02;1.35;;;1.25;;
57891;SDS011;43708;48.828;9.166;2023-02-28T14:46:38;1.33;;;1.17;;
57891;SDS011;43708;48.828;9.166;2023-02-28T14:49:06;1.33;;;1.20;;
57891;SDS011;43708;48.828;9.166;2023-02-28T14:51:37;1.83;;;1.13;;
57891;SDS011;43708;48.828;9.166;2023-02-28T14:54:03;1.30;;;1.20;;
57891;SDS011;43708;48.828;9.166;2023-02-28T14:56:34;1.48;;;1.20;;
57891;SDS011;43708;48.828;9.166;2023-02-28T14:59:01;1.77;;;1.55;;
57891;SDS011;43708;48.828;9.166;2023-02-28T15:01:28;1.55;;;1.42;;
57891;SDS011;43708;48.828;9.166;2023-02-28T15:04:03;1.67;;;1.08;;
57891;SDS011;43708;48.828;9.166;2023-02-28T15:06:31;2.00;;;1.38;;
57891;SDS011;43708;48.828;9.166;2023-02-28T15:09:11;1.30;;;1.20;;
57891;SDS011;43708;48.828;9.166;2023-02-28T15:11:41;1.38;;;1.27;;
57891;SDS011;43708;48.828;9.166;2023-02-28T15:14:28;1.25;;;1.15;;
57891;SDS011;43708;48.828;9.166;2023-02-28T15:17:06;1.50;;;1.40;;
57891;SDS011;43708;48.828;9.166;2023-02-28T15:19:41;1.10;;;0.90;;
57891;SDS011;43708;48.828;9.166;2023-02-28T15:22:12;1.38;;;1.20;;
57891;SDS011;43708;48.828;9.166;2023-02-28T15:27:24;1.40;;;1.30;;
57891;SDS011;43708;48.828;9.166;2023-02-28T15:30:15;1.50;;;1.40;;
57891;SDS011;43708;48.828;9.166;2023-02-28T15:33:01;1.27;;;1.13;;
57891;SDS011;43708;48.828;9.166;2023-02-28T15:35:33;1.10;;;1.00;;
57891;SDS011;43708;48.828;9.166;2023-02-28T15:38:16;1.17;;;1.08;;
57891;SDS011;43708;48.828;9.166;2023-02-28T15:40:56;1.17;;;1.00;;
57891;SDS011;43708;48.828;9.166;2023-02-28T15:43:33;1.50;;;1.13;;
57891;SDS011;43708;48.828;9.166;2023-02-28T15:48:32;1.20;;;1.10;;
57891;SDS011;43708;48.828;9.166;2023-02-28T15:51:06;1.10;;;1.05;;
57891;SDS011;43708;48.828;9.166;2023-02-28T15:56:27;1.20;;;1.10;;
57891;SDS011;43708;48.828;9.166;2023-02-28T15:58:55;1.40;;;1.30;;
57891;SDS011;43708;48.828;9.166;2023-02-28T16:01:26;2.90;;;1.25;;
57891;SDS011;43708;48.828;9.166;2023-02-28T16:03:55;2.15;;;1.30;;
57891;SDS011;43708;48.828;9.166;2023-02-28T16:06:24;0.90;;;0.90;;
57891;SDS011;43708;48.828;9.166;2023-02-28T16:08:51;1.00;;;0.90;;
57891;SDS011;43708;48.828;9.166;2023-02-28T16:11:18;1.00;;;0.90;;
57891;SDS011;43708;48.828;9.166;2023-02-28T16:13:46;1.10;;;1.00;;
57891;SDS011;43708;48.828;9.166;2023-02-28T16:16:18;0.95;;;0.90;;
57891;SDS011;43708;48.828;9.166;2023-02-28T16:18:45;1.15;;;0.88;;
57891;SDS011;43708;48.828;9.166;2023-02-28T16:21:11;1.00;;;0.90;;
57891;SDS011;43708;48.828;9.166;2023-02-28T16:23:37;0.93;;;0.93;;
57891;SDS011;43708;48.828;9.166;2023-02-28T16:26:03;1.33;;;1.10;;
57891;SDS011;43708;48.828;9.166;2023-02-28T16:28:38;1.20;;;1.10;;
57891;SDS011;43708;48.828;9.166;2023-02-28T16:31:05;1.35;;;1.08;;
57891;SDS011;43708;48.828;9.166;2023-02-28T16:33:32;1.45;;;1.35;;
57891;SDS011;43708;48.828;9.166;2023-02-28T16:35:58;1.20;;;1.10;;
57891;SDS011;43708;48.828;9.166;2023-02-28T16:38:24;1.40;;;1.30;;
57891;SDS011;43708;48.828;9.166;2023-02-28T16:40:50;1.27;;;1.17;;
57891;SDS011;43708;48.828;9.166;2023-02-28T16:43:17;1.55;;;1.10;;
57891;SDS011;43708;48.828;9.166;2023-02-28T16:45:46;1.40;;;1.17;;
57891;SDS011;43708;48.828;9.166;2023-02-28T16:48:13;1.10;;;1.00;;
57891;SDS011;43708;48.828;9.166;2023-02-28T16:50:40;1.30;;;1.20;;
57891;SDS011;43708;48.828;9.166;2023-02-28T16:53:06;1.58;;;1.45;;
57891;SDS011;43708;48.828;9.166;2023-02-28T16:55:31;1.65;;;1.30;;
57891;SDS011;43708;48.828;9.166;2023-02-28T16:57:58;1.33;;;1.13;;
57891;SDS011;43708;48.828;9.166;2023-02-28T17:00:25;1.48;;;1.15;;
57891;SDS011;43708;48.828;9.166;2023-02-28T17:02:52;1.83;;;1.13;;
57891;SDS011;43708;48.828;9.166;2023-02-28T17:05:18;1.30;;;1.20;;
57891;SDS011;43708;48.828;9.166;2023-02-28T17:07:45;1.27;;;1.17;;
57891;SDS011;43708;48.828;9.166;2023-02-28T17:10:21;1.40;;;1.30;;
57891;SDS011;43708;48.828;9.166;2023-02-28T17:12:48;1.83;;;1.40;;
57891;SDS011;43708;48.828;9.166;2023-02-28T17:15:15;1.55;;;1.38;;
57891;SDS011;43708;48.828;9.166;2023-02-28T17:17:42;2.55;;;1.70;;
57891;SDS011;43708;48.828;9.166;2023-02-28T17:20:12;2.60;;;1.77;;
57891;SDS011;43708;48.828;9.166;2023-02-28T17:22:38;2.53;;;1.65;;
57891;SDS011;43708;48.828;9.166;2023-02-28T17:25:04;1.77;;;1.67;;
57891;SDS011;43708;48.828;9.166;2023-02-28T17:27:30;3.30;;;1.58;;
57891;SDS011;43708;48.828;9.166;2023-02-28T17:29:56;2.25;;;2.05;;
57891;SDS011;43708;48.828;9.166;2023-02-28T17:32:21;2.92;;;2.63;;
57891;SDS011;43708;48.828;9.166;2023-02-28T17:34:47;3.42;;;3.13;;
57891;SDS011;43708;48.828;9.166;2023-02-28T17:37:12;2.60;;;2.30;;